KUGN/UGN METAR and TAF weather

Enter ICAO airport designator
Station Type Date Time Source
KUGN METAR 2018/12/13 20:55 UTC NOAA

KUGN 132055Z VRB03KT 5SM HZ CLR 03/M01 A3007 RMK AO2 SLP193 T00331011 50007


Station Type Date Time Source
KUGN Decoded METAR 2018/12/13 20:55 UTC NOAA

CHICAGO/WAUKEGAN REGIONAL, IL, United States (KUGN) 42-25N 087-52W
Dec 13, 2018 - 03:55 PM EST / 2018.12.13 2055 UTC
Wind: Variable at 3 MPH (3 KT):0
Visibility: 5 mile(s):0
Sky conditions: clear
Weather: haze
Temperature: 37.9 F (3.3 C)
Dew Point: 30.0 F (-1.1 C)
Relative Humidity: 72%
Pressure (altimeter): 30.07 in. Hg (1018 hPa)
Pressure tendency: 0.02 inches (0.7 hPa) higher than three hours ago
ob: KUGN 132055Z VRB03KT 5SM HZ CLR 03/M01 A3007 RMK AO2 SLP193 T00331011 50007
cycle: 21

Station Type Date Time Source
KUGN TAF UTC NOAA

Error!


Example: see airport list